createdAt,value
2023-04-15T00:00:02.403Z,8.50
2023-04-15T00:02:41.091Z,8.50
2023-04-15T00:05:09.791Z,8.40
2023-04-15T00:07:40.563Z,8.40
2023-04-15T00:10:09.544Z,8.30
2023-04-15T00:12:37.753Z,8.30
2023-04-15T00:15:06.630Z,8.30
2023-04-15T00:17:34.807Z,8.20
2023-04-15T00:20:06.303Z,8.20
2023-04-15T00:22:34.427Z,8.20
2023-04-15T00:25:03.792Z,8.10
2023-04-15T00:27:31.858Z,8.10
2023-04-15T00:30:00.061Z,8.10
2023-04-15T00:32:28.332Z,8.10
2023-04-15T00:34:56.320Z,8.00
2023-04-15T00:37:24.879Z,7.90
2023-04-15T00:39:53.033Z,7.90
2023-04-15T00:42:22.731Z,7.90
2023-04-15T00:44:50.673Z,7.80
2023-04-15T00:47:20.639Z,7.80
2023-04-15T00:49:48.555Z,7.80
2023-04-15T00:52:16.772Z,7.80
2023-04-15T00:54:44.990Z,7.70
2023-04-15T00:57:13.488Z,7.70
2023-04-15T00:59:42.881Z,7.70
2023-04-15T01:02:11.233Z,7.60
2023-04-15T01:04:39.505Z,7.60
2023-04-15T01:07:07.336Z,7.60
2023-04-15T01:09:35.468Z,7.50
2023-04-15T01:12:04.995Z,7.50
2023-04-15T01:14:34.440Z,7.50
2023-04-15T01:17:03.824Z,7.40
2023-04-15T01:19:32.325Z,7.40
2023-04-15T01:22:00.541Z,7.40
2023-04-15T01:24:29.212Z,7.40
2023-04-15T01:26:59.277Z,7.30
2023-04-15T01:29:28.026Z,7.30
2023-04-15T01:31:57.381Z,7.30
2023-04-15T01:34:27.518Z,7.20
2023-04-15T01:36:55.654Z,7.20
2023-04-15T01:39:23.825Z,7.20
2023-04-15T01:41:52.259Z,7.20
2023-04-15T01:44:21.644Z,7.10
2023-04-15T01:46:49.819Z,7.10
2023-04-15T01:49:17.946Z,7.10
2023-04-15T01:51:45.874Z,7.10
2023-04-15T01:54:14.365Z,7.10
2023-04-15T01:56:42.965Z,7.00
2023-04-15T01:59:11.039Z,7.00
2023-04-15T02:01:40.891Z,6.90
2023-04-15T02:04:16.511Z,6.90
2023-04-15T02:06:44.581Z,6.90
2023-04-15T02:09:13.628Z,6.90
2023-04-15T02:11:41.535Z,6.80
2023-04-15T02:14:09.537Z,6.80
2023-04-15T02:16:37.590Z,6.80
2023-04-15T02:19:07.977Z,6.70
2023-04-15T02:21:38.814Z,6.70
2023-04-15T02:24:07.520Z,6.70
2023-04-15T02:26:35.626Z,6.70
2023-04-15T02:29:03.624Z,6.60
2023-04-15T02:31:34.102Z,6.60
2023-04-15T02:34:04.421Z,6.60
2023-04-15T02:36:34.523Z,6.60
2023-04-15T02:39:03.264Z,6.50
2023-04-15T02:41:31.378Z,6.50
2023-04-15T02:43:59.785Z,6.40
2023-04-15T02:46:29.281Z,6.40
2023-04-15T02:48:59.723Z,6.40
2023-04-15T02:51:33.124Z,6.40
2023-04-15T02:54:01.631Z,6.30
2023-04-15T02:56:30.335Z,6.30
2023-04-15T02:58:58.655Z,6.30
2023-04-15T03:01:27.292Z,6.30
2023-04-15T03:03:55.432Z,6.30
2023-04-15T03:06:24.841Z,6.30
2023-04-15T03:08:54.351Z,6.20
2023-04-15T03:11:22.713Z,6.30
2023-04-15T03:13:50.832Z,6.20
2023-04-15T03:16:28.476Z,6.20
2023-04-15T03:18:56.599Z,6.20
2023-04-15T03:21:26.075Z,6.10
2023-04-15T03:23:56.143Z,6.10
2023-04-15T03:26:27.400Z,6.10
2023-04-15T03:28:56.310Z,6.10
2023-04-15T03:31:24.751Z,6.10
2023-04-15T03:33:53.009Z,6.00
2023-04-15T03:36:21.110Z,6.00
2023-04-15T03:38:49.375Z,6.00
2023-04-15T03:41:18.965Z,6.00
2023-04-15T03:43:46.819Z,5.90
2023-04-15T03:46:15.062Z,5.90
2023-04-15T03:48:43.002Z,5.90
2023-04-15T03:51:11.709Z,5.90
2023-04-15T03:53:39.630Z,5.80
2023-04-15T03:56:08.165Z,5.80
2023-04-15T03:58:37.488Z,5.80
2023-04-15T04:01:05.988Z,5.80
2023-04-15T04:03:34.573Z,5.90
2023-04-15T04:06:02.826Z,5.70
2023-04-15T04:08:30.860Z,5.80
2023-04-15T04:10:58.778Z,5.70
2023-04-15T04:13:26.895Z,5.70
2023-04-15T04:15:56.428Z,5.70
2023-04-15T04:18:24.532Z,5.70
2023-04-15T04:20:52.789Z,5.70
2023-04-15T04:23:20.771Z,5.70
2023-04-15T04:25:48.659Z,5.70
2023-04-15T04:28:16.642Z,5.70
2023-04-15T04:30:44.790Z,5.70
2023-04-15T04:33:14.474Z,5.80
2023-04-15T04:35:42.301Z,5.70
2023-04-15T04:38:10.840Z,5.70
2023-04-15T04:40:38.972Z,5.70
2023-04-15T04:43:06.864Z,5.70
2023-04-15T04:45:34.924Z,5.70
2023-04-15T04:48:07.192Z,5.70
2023-04-15T04:50:36.962Z,5.70
2023-04-15T04:53:05.355Z,5.70
2023-04-15T04:55:33.441Z,5.70
2023-04-15T04:58:01.429Z,5.70
2023-04-15T05:00:29.791Z,5.70
2023-04-15T05:02:58.693Z,5.70
2023-04-15T05:05:27.189Z,5.70
2023-04-15T05:07:56.411Z,5.70
2023-04-15T05:10:24.452Z,5.70
2023-04-15T05:12:53.008Z,5.70
2023-04-15T05:15:21.437Z,5.70
2023-04-15T05:17:49.519Z,5.70
2023-04-15T05:20:17.881Z,5.70
2023-04-15T05:22:46.013Z,5.70
2023-04-15T05:25:15.622Z,5.80
2023-04-15T05:27:44.094Z,5.80
2023-04-15T05:30:13.754Z,5.70
2023-04-15T05:32:42.010Z,5.80
2023-04-15T05:35:10.242Z,5.70
2023-04-15T05:37:38.413Z,5.70
2023-04-15T05:40:07.225Z,5.80
2023-04-15T05:42:36.856Z,5.80
2023-04-15T05:45:08.937Z,5.80
2023-04-15T05:47:37.452Z,5.80
2023-04-15T05:50:06.504Z,5.80
2023-04-15T05:52:34.801Z,5.80
2023-04-15T05:55:02.675Z,5.90
2023-04-15T05:57:31.875Z,5.90
2023-04-15T06:00:01.740Z,5.90
2023-04-15T06:02:37.857Z,6.00
2023-04-15T06:05:09.867Z,6.00
2023-04-15T06:07:38.304Z,6.10
2023-04-15T06:10:07.864Z,6.10
2023-04-15T06:12:36.244Z,6.10
2023-04-15T06:15:06.715Z,6.20
2023-04-15T06:17:34.848Z,6.30
2023-04-15T06:20:03.154Z,6.30
2023-04-15T06:22:31.040Z,6.40
2023-04-15T06:24:59.306Z,6.40
2023-04-15T06:27:27.169Z,6.50
2023-04-15T06:29:55.048Z,6.50
2023-04-15T06:32:24.612Z,6.60
2023-04-15T06:34:52.485Z,6.60
2023-04-15T06:37:20.706Z,6.70
2023-04-15T06:39:48.823Z,6.80
2023-04-15T06:42:16.790Z,6.80
2023-04-15T06:44:45.039Z,6.90
2023-04-15T06:47:14.680Z,6.90
2023-04-15T06:49:44.983Z,7.00
2023-04-15T06:52:13.000Z,7.10
2023-04-15T06:54:41.138Z,7.20
2023-04-15T06:57:09.269Z,7.20
2023-04-15T06:59:37.476Z,7.20
2023-04-15T07:02:05.437Z,7.30
2023-04-15T07:04:33.581Z,7.40
2023-04-15T07:07:03.331Z,7.50
2023-04-15T07:09:32.360Z,7.50
2023-04-15T07:12:00.407Z,7.60
2023-04-15T07:14:29.561Z,7.70
2023-04-15T07:16:57.617Z,7.80
2023-04-15T07:19:25.781Z,7.90
2023-04-15T07:21:54.043Z,7.90
2023-04-15T07:24:26.711Z,8.00
2023-04-15T07:26:57.178Z,8.10
2023-04-15T07:29:26.228Z,8.20
2023-04-15T07:31:54.199Z,8.30
2023-04-15T07:34:22.136Z,8.40
2023-04-15T07:36:50.562Z,8.60
2023-04-15T07:39:18.728Z,8.70
2023-04-15T07:41:48.994Z,8.80
2023-04-15T07:44:17.286Z,9.00
2023-04-15T07:46:45.424Z,9.10
2023-04-15T07:49:13.461Z,9.20
2023-04-15T07:51:41.403Z,9.40
2023-04-15T07:54:09.394Z,9.60
2023-04-15T07:56:37.288Z,9.80
2023-04-15T07:59:06.963Z,10.00
2023-04-15T08:01:35.098Z,10.20
2023-04-15T08:04:03.328Z,10.40
2023-04-15T08:06:31.608Z,10.50
2023-04-15T08:09:00.149Z,10.70
2023-04-15T08:11:28.756Z,10.90
2023-04-15T08:13:56.672Z,11.10
2023-04-15T08:16:27.970Z,11.30
2023-04-15T08:18:57.576Z,11.60
2023-04-15T08:21:26.006Z,11.80
2023-04-15T08:23:55.198Z,12.00
2023-04-15T08:26:23.930Z,12.20
2023-04-15T08:28:51.830Z,12.40
2023-04-15T08:31:20.265Z,12.60
2023-04-15T08:33:52.011Z,12.80
2023-04-15T08:36:20.533Z,13.10
2023-04-15T08:38:48.405Z,13.40
2023-04-15T08:41:22.253Z,13.80
2023-04-15T08:43:54.724Z,14.20
2023-04-15T08:46:23.687Z,14.40
2023-04-15T08:48:57.532Z,14.60
2023-04-15T08:51:26.567Z,14.80
2023-04-15T08:53:54.613Z,14.90
2023-04-15T08:56:26.290Z,14.90
2023-04-15T08:58:54.575Z,14.90
2023-04-15T09:01:22.965Z,14.90
2023-04-15T09:03:53.530Z,14.90
2023-04-15T09:06:22.071Z,14.90
2023-04-15T09:08:50.484Z,14.90
2023-04-15T09:11:20.394Z,14.80
2023-04-15T09:13:48.848Z,14.80
2023-04-15T09:16:17.245Z,14.80
2023-04-15T09:18:45.655Z,14.70
2023-04-15T09:21:16.560Z,14.70
2023-04-15T09:23:56.694Z,14.70
2023-04-15T09:26:33.547Z,14.70
2023-04-15T09:29:09.193Z,14.70
2023-04-15T09:31:37.911Z,14.70
2023-04-15T09:34:06.908Z,14.80
2023-04-15T09:36:54.184Z,14.80
2023-04-15T09:39:22.506Z,15.00
2023-04-15T09:42:07.901Z,15.10
2023-04-15T09:44:36.399Z,15.10
2023-04-15T09:47:04.397Z,15.20
2023-04-15T09:49:33.025Z,15.30
2023-04-15T09:52:05.529Z,15.30
2023-04-15T09:54:36.466Z,15.30
2023-04-15T09:57:09.795Z,15.40
2023-04-15T09:59:37.916Z,15.40
2023-04-15T10:02:07.715Z,15.40
2023-04-15T10:04:39.805Z,15.50
2023-04-15T10:07:10.422Z,15.60
2023-04-15T10:09:39.746Z,15.70
2023-04-15T10:12:07.774Z,15.90
2023-04-15T10:14:38.899Z,16.10
2023-04-15T10:17:08.801Z,16.30
2023-04-15T10:19:38.460Z,16.40
2023-04-15T10:22:07.508Z,16.60
2023-04-15T10:24:37.316Z,16.70
2023-04-15T10:27:07.379Z,16.80
2023-04-15T10:29:35.638Z,16.90
2023-04-15T10:32:04.653Z,17.10
2023-04-15T10:34:33.639Z,17.30
2023-04-15T10:37:03.812Z,17.50
2023-04-15T10:39:44.729Z,17.60
2023-04-15T10:42:15.176Z,17.70
2023-04-15T10:44:44.517Z,17.90
2023-04-15T10:47:13.909Z,17.90
2023-04-15T10:49:47.158Z,17.80
2023-04-15T10:52:17.562Z,17.70
2023-04-15T10:54:47.718Z,17.70
2023-04-15T10:57:22.378Z,17.50
2023-04-15T11:00:11.618Z,17.40
2023-04-15T11:02:48.185Z,17.20
2023-04-15T11:05:17.915Z,17.00
2023-04-15T11:07:54.352Z,16.90
2023-04-15T11:10:57.545Z,16.80
2023-04-15T11:13:31.352Z,16.70
2023-04-15T11:16:02.000Z,16.60
2023-04-15T11:18:32.921Z,16.50
2023-04-15T11:21:03.513Z,16.40
2023-04-15T11:23:38.387Z,16.40
2023-04-15T11:26:11.742Z,16.20
2023-04-15T11:28:41.806Z,16.10
2023-04-15T11:31:12.252Z,16.00
2023-04-15T11:33:46.814Z,16.00
2023-04-15T11:36:14.919Z,15.90
2023-04-15T11:38:48.313Z,15.90
2023-04-15T11:41:21.958Z,15.90
2023-04-15T11:43:50.446Z,15.80
2023-04-15T11:46:18.774Z,15.80
2023-04-15T11:48:48.805Z,15.70
2023-04-15T11:51:17.029Z,15.60
2023-04-15T11:53:46.281Z,15.60
2023-04-15T11:56:21.153Z,15.50
2023-04-15T11:58:51.045Z,15.50
2023-04-15T12:01:19.753Z,15.50
2023-04-15T12:03:49.932Z,15.50
2023-04-15T12:06:20.406Z,15.40
2023-04-15T12:09:10.260Z,15.50
2023-04-15T12:11:41.727Z,15.40
2023-04-15T12:14:13.517Z,15.40
2023-04-15T12:16:49.284Z,15.40
2023-04-15T12:19:20.308Z,15.40
2023-04-15T12:21:49.429Z,15.40
2023-04-15T12:24:22.823Z,15.40
2023-04-15T12:26:54.076Z,15.40
2023-04-15T12:29:27.302Z,15.30
2023-04-15T12:31:57.408Z,15.30
2023-04-15T12:34:30.346Z,15.30
2023-04-15T12:37:00.318Z,15.30
2023-04-15T12:39:30.625Z,15.20
2023-04-15T12:42:01.732Z,15.20
2023-04-15T12:44:30.196Z,15.10
2023-04-15T12:46:59.796Z,15.20
2023-04-15T12:49:28.942Z,15.10
2023-04-15T12:51:59.471Z,15.00
2023-04-15T12:54:28.544Z,15.00
2023-04-15T12:56:56.635Z,15.00
2023-04-15T12:59:26.053Z,14.90
2023-04-15T13:01:55.792Z,14.90
2023-04-15T13:04:24.144Z,14.90
2023-04-15T13:06:52.315Z,14.90
2023-04-15T13:09:20.541Z,14.90
2023-04-15T13:11:48.393Z,14.90
2023-04-15T13:14:17.021Z,14.90
2023-04-15T13:16:46.319Z,14.80
2023-04-15T13:19:14.455Z,14.80
2023-04-15T13:21:42.430Z,14.80
2023-04-15T13:24:10.609Z,14.80
2023-04-15T13:26:38.654Z,14.80
2023-04-15T13:29:06.851Z,14.80
2023-04-15T13:31:34.963Z,14.80
2023-04-15T13:34:04.631Z,14.80
2023-04-15T13:36:32.621Z,14.70
2023-04-15T13:39:01.091Z,14.60
2023-04-15T13:41:29.030Z,14.60
2023-04-15T13:43:58.271Z,14.60
2023-04-15T13:46:26.784Z,14.50
2023-04-15T13:48:54.829Z,14.50
2023-04-15T13:51:24.279Z,14.50
2023-04-15T13:53:52.273Z,14.50
2023-04-15T13:56:20.177Z,14.40
2023-04-15T13:58:48.504Z,14.40
2023-04-15T14:01:16.447Z,14.30
2023-04-15T14:03:44.846Z,14.20
2023-04-15T14:06:13.153Z,14.20
2023-04-15T14:08:42.392Z,14.20
2023-04-15T14:11:10.828Z,14.20
2023-04-15T14:13:38.885Z,14.20
2023-04-15T14:16:07.483Z,14.20
2023-04-15T14:18:35.439Z,14.10
2023-04-15T14:21:03.613Z,14.10
2023-04-15T14:23:32.016Z,14.10
2023-04-15T14:26:01.267Z,14.10
2023-04-15T14:28:29.376Z,14.10
2023-04-15T14:30:57.312Z,14.00
2023-04-15T14:33:25.184Z,14.00
2023-04-15T14:35:53.557Z,14.00
2023-04-15T14:38:22.665Z,13.90
2023-04-15T14:40:50.918Z,13.90
2023-04-15T14:43:20.541Z,13.90
2023-04-15T14:45:48.808Z,13.90
2023-04-15T14:48:17.350Z,13.80
2023-04-15T14:50:45.200Z,13.90
2023-04-15T14:53:13.150Z,13.80
2023-04-15T14:55:41.346Z,13.80
2023-04-15T14:58:09.407Z,13.80
2023-04-15T15:00:44.609Z,13.80
2023-04-15T15:03:13.644Z,13.80
2023-04-15T15:05:42.719Z,13.70
2023-04-15T15:08:11.418Z,13.70
2023-04-15T15:10:49.510Z,13.70
2023-04-15T15:13:18.807Z,13.70
2023-04-15T15:15:49.813Z,13.70
2023-04-15T15:18:19.093Z,13.70
2023-04-15T15:20:47.992Z,13.60
2023-04-15T15:23:16.088Z,13.60
2023-04-15T15:25:44.692Z,13.60
2023-04-15T15:28:13.194Z,13.60
2023-04-15T15:30:41.584Z,13.60
2023-04-15T15:33:11.190Z,13.60
2023-04-15T15:35:39.152Z,13.60
2023-04-15T15:38:07.263Z,13.50
2023-04-15T15:40:35.382Z,13.50
2023-04-15T15:43:03.413Z,13.40
2023-04-15T15:45:31.720Z,13.40
2023-04-15T15:48:00.153Z,13.30
2023-04-15T15:50:29.435Z,13.30
2023-04-15T15:52:58.739Z,13.30
2023-04-15T15:55:27.357Z,13.20
2023-04-15T15:57:55.498Z,13.20
2023-04-15T16:00:23.616Z,13.20
2023-04-15T16:05:22.613Z,13.20
2023-04-15T16:07:51.913Z,13.20
2023-04-15T16:10:20.184Z,13.10
2023-04-15T16:12:48.106Z,13.10
2023-04-15T16:15:16.495Z,13.10
2023-04-15T16:17:44.347Z,13.10
2023-04-15T16:20:12.465Z,13.00
2023-04-15T16:22:40.785Z,13.00
2023-04-15T16:25:10.846Z,13.00
2023-04-15T16:30:11.929Z,13.00
2023-04-15T16:32:39.929Z,13.00
2023-04-15T16:35:09.102Z,13.00
2023-04-15T16:37:37.404Z,13.00
2023-04-15T16:40:06.071Z,13.00
2023-04-15T16:42:36.729Z,13.00
2023-04-15T16:45:08.592Z,12.90
2023-04-15T16:47:36.644Z,12.90
2023-04-15T16:50:04.722Z,12.90
2023-04-15T16:52:32.923Z,12.90
2023-04-15T16:55:00.801Z,12.90
2023-04-15T16:57:38.212Z,12.90
2023-04-15T17:00:18.668Z,12.90
2023-04-15T17:02:47.101Z,12.80
2023-04-15T17:05:15.034Z,12.80
2023-04-15T17:07:43.091Z,12.60
2023-04-15T17:10:13.824Z,12.70
2023-04-15T17:12:41.911Z,12.70
2023-04-15T17:15:10.889Z,12.70
2023-04-15T17:17:40.469Z,12.70
2023-04-15T17:20:08.840Z,12.70
2023-04-15T17:22:37.039Z,12.70
2023-04-15T17:25:05.815Z,12.70
2023-04-15T17:27:33.966Z,12.60
2023-04-15T17:30:01.923Z,12.60
2023-04-15T17:32:34.344Z,12.70
2023-04-15T17:35:06.340Z,12.60
2023-04-15T17:37:34.652Z,12.60
2023-04-15T17:40:02.829Z,12.60
2023-04-15T17:42:30.668Z,12.60
2023-04-15T17:44:58.733Z,12.60
2023-04-15T17:47:26.737Z,12.60
2023-04-15T17:49:54.897Z,12.60
2023-04-15T17:52:24.299Z,12.60
2023-04-15T17:54:52.469Z,12.60
2023-04-15T17:57:20.511Z,12.60
2023-04-15T17:59:49.361Z,12.60
2023-04-15T18:02:17.452Z,12.60
2023-04-15T18:04:45.763Z,12.60
2023-04-15T18:07:14.089Z,12.60
2023-04-15T18:09:44.263Z,12.50
2023-04-15T18:12:12.196Z,12.60
2023-04-15T18:14:40.431Z,12.60
2023-04-15T18:17:08.763Z,12.60
2023-04-15T18:19:36.826Z,12.60
2023-04-15T18:22:04.798Z,12.50
2023-04-15T18:24:33.904Z,12.50
2023-04-15T18:27:03.903Z,12.50
2023-04-15T18:29:32.144Z,12.50
2023-04-15T18:32:02.959Z,12.50
2023-04-15T18:34:31.162Z,12.50
2023-04-15T18:36:59.774Z,12.50
2023-04-15T18:39:28.270Z,12.60
2023-04-15T18:41:57.692Z,12.50
2023-04-15T18:44:28.311Z,12.50
2023-04-15T18:46:56.280Z,12.40
2023-04-15T18:49:24.437Z,12.60
2023-04-15T18:51:52.368Z,12.50
2023-04-15T18:54:21.007Z,12.50
2023-04-15T18:56:48.988Z,12.50
2023-04-15T18:59:29.729Z,12.50
2023-04-15T19:02:01.160Z,12.40
2023-04-15T19:04:29.668Z,12.50
2023-04-15T19:06:58.743Z,12.40
2023-04-15T19:09:26.742Z,12.40
2023-04-15T19:11:54.953Z,12.40
2023-04-15T19:14:23.250Z,12.40
2023-04-15T19:16:51.572Z,12.40
2023-04-15T19:19:20.952Z,12.40
2023-04-15T19:21:50.436Z,12.50
2023-04-15T19:24:18.671Z,12.40
2023-04-15T19:26:49.537Z,12.40
2023-04-15T19:29:17.840Z,12.40
2023-04-15T19:31:46.026Z,12.40
2023-04-15T19:34:13.960Z,12.40
2023-04-15T19:36:43.942Z,12.40
2023-04-15T19:39:12.016Z,12.40
2023-04-15T19:41:40.782Z,12.40
2023-04-15T19:44:08.665Z,12.40
2023-04-15T19:46:37.112Z,12.40
2023-04-15T19:49:05.402Z,12.40
2023-04-15T19:51:33.610Z,12.40
2023-04-15T19:54:03.025Z,12.40
2023-04-15T19:56:32.917Z,12.40
2023-04-15T19:59:02.691Z,12.40
2023-04-15T20:01:31.041Z,12.40
2023-04-15T20:03:59.450Z,12.40
2023-04-15T20:06:28.445Z,12.40
2023-04-15T20:08:56.540Z,12.30
2023-04-15T20:12:09.326Z,12.40
2023-04-15T20:14:17.659Z,12.40
2023-04-15T20:16:45.774Z,12.40
2023-04-15T20:19:13.899Z,12.30
2023-04-15T20:21:42.009Z,12.30
2023-04-15T20:24:09.994Z,12.40
2023-04-15T20:26:39.580Z,12.40
2023-04-15T20:29:07.796Z,12.30
2023-04-15T20:31:36.406Z,12.40
2023-04-15T20:34:04.525Z,12.40
2023-04-15T20:36:33.367Z,12.40
2023-04-15T20:39:01.251Z,12.40
2023-04-15T20:41:29.308Z,12.40
2023-04-15T20:43:58.568Z,12.40
2023-04-15T20:46:27.664Z,12.30
2023-04-15T20:48:56.776Z,12.30
2023-04-15T20:51:24.804Z,12.40
2023-04-15T20:53:52.902Z,12.40
2023-04-15T20:56:20.822Z,12.30
2023-04-15T20:58:48.878Z,12.40
2023-04-15T21:01:18.164Z,12.30
2023-04-15T21:03:46.469Z,12.30
2023-04-15T21:06:14.435Z,12.30
2023-04-15T21:08:42.711Z,12.50
2023-04-15T21:11:10.950Z,12.40
2023-04-15T21:13:38.857Z,12.30
2023-04-15T21:16:07.096Z,12.40
2023-04-15T21:18:36.549Z,12.30
2023-04-15T21:21:05.478Z,12.30
2023-04-15T21:23:36.059Z,12.30
2023-04-15T21:26:04.324Z,12.30
2023-04-15T21:28:33.227Z,12.30
2023-04-15T21:31:01.208Z,12.30
2023-04-15T21:33:29.325Z,12.30
2023-04-15T21:35:58.626Z,12.30
2023-04-15T21:38:26.875Z,12.30
2023-04-15T21:40:55.107Z,12.30
2023-04-15T21:43:25.612Z,12.30
2023-04-15T21:46:23.724Z,12.30
2023-04-15T21:48:41.603Z,12.30
2023-04-15T21:51:10.888Z,12.30
2023-04-15T21:53:38.953Z,12.30
2023-04-15T21:56:08.898Z,12.30
2023-04-15T21:58:37.106Z,12.30
2023-04-15T22:01:05.801Z,12.40
2023-04-15T22:03:35.524Z,12.30
2023-04-15T22:06:04.031Z,12.30
2023-04-15T22:08:44.625Z,12.30
2023-04-15T22:11:22.944Z,12.30
2023-04-15T22:13:51.048Z,12.30
2023-04-15T22:16:19.157Z,12.30
2023-04-15T22:18:47.249Z,12.30
2023-04-15T22:21:15.151Z,12.30
2023-04-15T22:23:47.515Z,12.30
2023-04-15T22:26:15.797Z,12.30
2023-04-15T22:28:44.001Z,12.20
2023-04-15T22:31:12.054Z,12.20
2023-04-15T22:33:40.202Z,12.20
2023-04-15T22:36:08.404Z,12.30
2023-04-15T22:38:36.309Z,12.20
2023-04-15T22:41:05.749Z,12.20
2023-04-15T22:43:33.701Z,12.20
2023-04-15T22:46:02.129Z,12.20
2023-04-15T22:48:30.266Z,12.20
2023-04-15T22:50:58.380Z,12.20
2023-04-15T22:53:26.405Z,12.20
2023-04-15T22:55:54.408Z,12.20
2023-04-15T22:58:23.927Z,12.10
2023-04-15T23:00:52.175Z,12.10
2023-04-15T23:03:20.208Z,12.10
2023-04-15T23:05:48.415Z,12.20
2023-04-15T23:08:16.283Z,12.10
2023-04-15T23:10:44.696Z,12.20
2023-04-15T23:13:12.591Z,12.20
2023-04-15T23:15:41.920Z,12.20
2023-04-15T23:18:09.948Z,12.20
2023-04-15T23:20:38.128Z,12.20
2023-04-15T23:23:06.066Z,12.10
2023-04-15T23:25:34.277Z,12.30
2023-04-15T23:28:02.254Z,12.10
2023-04-15T23:30:32.033Z,12.10
2023-04-15T23:33:02.201Z,12.10
2023-04-15T23:35:30.309Z,12.30
2023-04-15T23:37:58.190Z,12.10
2023-04-15T23:40:26.350Z,12.20
2023-04-15T23:42:54.209Z,12.10
2023-04-15T23:45:22.432Z,12.30
2023-04-15T23:47:50.528Z,12.10
2023-04-15T23:50:20.010Z,12.20
2023-04-15T23:52:47.953Z,12.10
2023-04-15T23:55:16.378Z,12.10
2023-04-15T23:57:44.309Z,12.20
